Time;durP1;ratioP1;P1;durP2;ratioP2;P2;SDS_P1;SDS_P2;PMS_P1;PMS_P2;Temp;Humidity;BMP_temperature;BMP_pressure;BME280_temperature;BME280_humidity;BME280_pressure;Samples;Min_cycle;Max_cycle;Signal;HPM_P1;HPM_P2
2022/01/24 00:02:21;;;;;;;;;29.00;25.00;;;;;21.17;50.52;102661.91;112072;1244;21681;-75
2022/01/24 00:04:48;;;;;;;;;28.00;21.00;;;;;21.18;50.26;102668.39;112072;1245;20027;-76
2022/01/24 00:07:18;;;;;;;;;25.67;22.00;;;;;21.17;50.52;102672.60;112092;1245;19337;-77
2022/01/24 00:09:45;;;;;;;;;25.33;22.33;;;;;21.17;50.35;102674.10;112093;1245;19483;-76
2022/01/24 00:12:17;;;;;;;;;28.00;22.00;;;;;21.18;50.10;102674.21;112081;1245;20300;-77
2022/01/24 00:15:03;;;;;;;;;28.33;25.00;;;;;21.18;50.38;102674.02;112086;1245;19426;-76
2022/01/24 00:17:34;;;;;;;;;31.67;25.33;;;;;21.18;50.21;102673.80;112071;1244;19473;-76
2022/01/24 00:28:13;;;;;;;;;23.33;21.33;;;;;21.19;50.18;102671.70;111895;1245;20154;-77
2022/01/24 00:30:39;;;;;;;;;28.00;24.00;;;;;21.19;50.24;102669.05;111940;1245;23645;-75
2022/01/24 00:33:05;;;;;;;;;25.00;25.00;;;;;21.17;49.98;102663.55;112078;1245;19526;-75
2022/01/24 00:35:32;;;;;;;;;29.00;26.67;;;;;21.17;49.96;102662.83;112055;1244;20320;-77
2022/01/24 00:38:00;;;;;;;;;26.00;23.33;;;;;21.17;49.85;102664.84;112098;1245;19421;-78
2022/01/24 00:40:27;;;;;;;;;22.50;20.00;;;;;21.17;50.11;102661.40;112099;1244;19599;-76
2022/01/24 00:42:56;;;;;;;;;25.00;23.00;;;;;21.16;50.10;102659.77;112079;1245;20235;-77
2022/01/24 00:45:31;;;;;;;;;24.67;22.33;;;;;21.16;49.80;102661.27;112106;1244;19277;-76
2022/01/24 00:48:22;;;;;;;;;27.33;22.33;;;;;21.16;49.96;102659.58;112054;1244;23190;-76
2022/01/24 00:53:49;;;;;;;;;24.50;21.00;;;;;21.17;49.97;102661.02;112024;1244;20624;-77
2022/01/24 00:56:15;;;;;;;;;26.00;23.00;;;;;21.17;49.88;102654.81;112475;1245;19507;-76
2022/01/24 00:58:42;;;;;;;;;24.00;22.00;;;;;21.17;49.85;102653.89;113627;1243;20437;-74
2022/01/24 01:01:08;;;;;;;;;26.33;23.67;;;;;21.17;49.70;102658.43;112336;1244;19523;-76
2022/01/24 01:03:34;;;;;;;;;25.33;23.33;;;;;21.19;49.83;102661.05;111975;1245;19655;-76
2022/01/24 01:06:05;;;;;;;;;29.00;24.00;;;;;21.19;49.64;102660.79;111899;1245;20013;-77
2022/01/24 01:19:29;;;;;;;;;27.67;22.67;;;;;21.17;49.54;102664.08;112099;1244;19522;-77
2022/01/24 01:21:55;;;;;;;;;28.00;25.00;;;;;21.17;49.60;102662.49;112083;1245;20314;-76
2022/01/24 01:24:22;;;;;;;;;27.00;21.50;;;;;21.16;49.41;102663.98;112112;1245;19103;-76
2022/01/24 01:26:53;;;;;;;;;25.00;23.50;;;;;21.16;49.59;102663.79;112065;1244;19562;-76
2022/01/24 01:29:24;;;;;;;;;25.33;22.67;;;;;21.17;49.36;102661.71;112068;1245;23639;-77
2022/01/24 01:31:59;;;;;;;;;28.50;25.00;;;;;21.16;49.57;102656.55;112095;1244;20408;-77
2022/01/24 01:34:47;;;;;;;;;25.33;24.00;;;;;21.16;49.39;102660.53;112092;1244;19494;-76
2022/01/24 01:40:39;;;;;;;;;28.00;24.33;;;;;21.16;49.41;102653.84;111965;1245;19396;-77
2022/01/24 01:56:46;;;;;;;;;24.00;22.67;;;;;21.14;49.22;102638.88;112058;1245;19651;-76
2022/01/24 01:59:13;;;;;;;;;24.50;22.00;;;;;21.14;49.17;102641.79;112063;1244;20414;-76
2022/01/24 02:01:39;;;;;;;;;27.00;24.00;;;;;21.15;48.96;102642.05;112092;1245;20346;-77
2022/01/24 02:04:05;;;;;;;;;35.00;25.00;;;;;21.15;49.06;102638.48;112066;1244;19052;-76
2022/01/24 02:06:31;;;;;;;;;23.50;21.00;;;;;21.15;49.09;102631.73;112082;1244;19655;-75
2022/01/24 02:08:57;;;;;;;;;26.67;25.00;;;;;21.15;49.00;102629.04;112099;1245;23279;-75
2022/01/24 02:11:24;;;;;;;;;28.00;22.00;;;;;21.16;49.02;102630.38;112090;1244;18923;-76
2022/01/24 02:13:50;;;;;;;;;30.67;26.67;;;;;21.16;48.83;102626.95;111905;1245;19689;-72
2022/01/24 02:16:24;;;;;;;;;27.00;22.33;;;;;21.14;48.83;102624.50;112019;1245;20208;-76
2022/01/24 02:19:04;;;;;;;;;24.00;23.00;;;;;21.16;48.85;102622.20;112071;1244;19474;-76
2022/01/24 02:21:42;;;;;;;;;28.67;23.33;;;;;21.16;49.03;102620.17;112081;1244;19579;-76
2022/01/24 02:24:10;;;;;;;;;26.00;23.00;;;;;21.15;48.88;102620.99;112091;1244;20249;-77
2022/01/24 02:26:36;;;;;;;;;26.67;25.00;;;;;21.15;48.76;102619.16;112083;1245;25086;-77
2022/01/24 02:29:10;;;;;;;;;23.00;22.00;;;;;21.16;48.84;102619.69;112115;1244;19541;-77
2022/01/24 02:31:51;;;;;;;;;30.33;27.67;;;;;21.15;48.92;102617.04;112085;1244;20864;-76
2022/01/24 02:34:17;;;;;;;;;29.67;23.67;;;;;21.15;48.97;102616.46;112086;1244;19403;-77
2022/01/24 02:36:43;;;;;;;;;29.00;25.00;;;;;21.14;48.71;102616.69;112085;1244;19283;-77
2022/01/24 02:39:29;;;;;;;;;28.00;24.00;;;;;21.14;48.70;102615.42;112106;1245;19939;-76
2022/01/24 02:50:09;;;;;;;;;25.00;23.67;;;;;21.13;48.68;102612.64;112069;1244;19189;-77
2022/01/24 02:52:35;;;;;;;;;24.00;23.33;;;;;21.12;48.52;102612.91;112094;1245;19508;-77
2022/01/24 02:55:01;;;;;;;;;23.50;23.00;;;;;21.13;48.49;102622.43;112029;1245;23272;-72
2022/01/24 02:57:27;;;;;;;;;30.50;27.00;;;;;21.14;48.50;102621.66;112001;1244;19089;-77
2022/01/24 02:59:53;;;;;;;;;27.50;23.50;;;;;21.13;48.35;102625.88;112091;1245;22211;-76
2022/01/24 03:02:19;;;;;;;;;28.50;24.00;;;;;21.14;48.48;102634.71;112060;1244;20460;-76
2022/01/24 03:04:45;;;;;;;;;30.00;27.00;;;;;21.14;48.45;102638.34;112005;1244;19270;-75
2022/01/24 03:07:11;;;;;;;;;27.00;25.00;;;;;21.14;48.47;102635.13;112017;1244;22765;-76
2022/01/24 03:09:37;;;;;;;;;30.50;26.50;;;;;21.14;48.32;102636.55;112053;1244;20450;-76
2022/01/24 03:12:07;;;;;;;;;28.00;25.00;;;;;21.13;48.49;102628.84;112035;1244;19313;-76
2022/01/24 03:14:33;;;;;;;;;23.50;22.00;;;;;21.13;48.24;102625.73;112075;1244;21071;-76
2022/01/24 03:17:00;;;;;;;;;27.67;23.00;;;;;21.12;48.30;102628.52;112071;1245;23122;-76
2022/01/24 03:19:26;;;;;;;;;26.67;23.67;;;;;21.13;48.44;102629.20;112088;1245;19706;-77
2022/01/24 03:21:53;;;;;;;;;27.00;23.00;;;;;21.12;48.38;102630.53;112124;1245;19441;-76
2022/01/24 03:24:19;;;;;;;;;24.67;24.00;;;;;21.12;48.22;102634.17;112105;1245;20386;-76
2022/01/24 03:26:47;;;;;;;;;31.67;24.67;;;;;21.12;48.02;102633.60;112092;1245;19168;-76
2022/01/24 03:29:13;;;;;;;;;25.00;24.00;;;;;21.12;48.23;102634.34;112090;1245;19381;-76
2022/01/24 03:31:40;;;;;;;;;27.00;26.00;;;;;21.12;48.25;102629.61;112077;1245;20223;-76
2022/01/24 03:34:06;;;;;;;;;27.33;24.00;;;;;21.12;48.21;102628.60;112080;1245;22473;-76
2022/01/24 03:36:32;;;;;;;;;24.00;21.67;;;;;21.11;48.09;102631.38;112109;1244;19594;-77
2022/01/24 03:38:58;;;;;;;;;28.00;24.33;;;;;21.12;48.12;102628.39;112098;1245;20269;-77
2022/01/24 03:41:24;;;;;;;;;33.50;27.00;;;;;21.13;47.89;102629.41;112089;1244;19619;-76
2022/01/24 03:43:51;;;;;;;;;28.00;24.00;;;;;21.12;47.94;102628.89;112077;1244;23197;-77
2022/01/24 03:46:27;;;;;;;;;26.00;24.33;;;;;21.13;47.97;102630.61;112089;1244;20266;-76
2022/01/24 03:48:56;;;;;;;;;27.00;23.33;;;;;21.13;48.01;102629.04;112033;1244;22930;-77
2022/01/24 03:51:22;;;;;;;;;26.67;21.00;;;;;21.14;47.97;102630.42;112085;1244;19730;-76
2022/01/24 03:53:48;;;;;;;;;26.00;22.67;;;;;21.13;48.07;102627.14;112046;1244;20156;-77
2022/01/24 03:56:14;;;;;;;;;28.00;27.00;;;;;21.13;47.82;102631.59;112046;1244;19637;-77
2022/01/24 03:58:41;;;;;;;;;31.33;26.67;;;;;21.14;47.87;102631.13;112044;1245;19647;-76
2022/01/24 04:01:07;;;;;;;;;24.00;22.00;;;;;21.13;47.87;102622.84;112090;1244;20296;-76
2022/01/24 04:03:34;;;;;;;;;28.00;27.00;;;;;21.12;48.18;102620.91;112081;1244;19249;-76
2022/01/24 04:06:00;;;;;;;;;33.00;25.00;;;;;21.13;48.02;102624.85;112073;1245;23614;-75
2022/01/24 04:08:26;;;;;;;;;26.50;24.00;;;;;21.12;47.90;102623.41;112071;1244;19999;-77
2022/01/24 04:10:55;;;;;;;;;24.67;24.00;;;;;21.13;47.79;102622.48;112072;1245;19347;-76
2022/01/24 04:13:27;;;;;;;;;30.67;27.00;;;;;21.13;47.82;102623.41;112102;1245;23346;-76
2022/01/24 04:18:39;;;;;;;;;24.33;22.67;;;;;21.12;47.91;102621.09;111651;1247;19301;-77
2022/01/24 04:21:21;;;;;;;;;23.00;21.00;;;;;21.13;47.95;102616.15;111649;1247;23715;-76
2022/01/24 04:23:51;;;;;;;;;25.00;23.00;;;;;21.13;47.91;102620.60;111616;1248;20342;-77
2022/01/24 04:26:18;;;;;;;;;30.50;25.00;;;;;21.13;47.63;102622.95;111607;1248;23706;-77
2022/01/24 04:28:44;;;;;;;;;31.50;24.00;;;;;21.13;47.78;102625.59;111625;1247;19527;-76
2022/01/24 04:31:10;;;;;;;;;25.00;20.33;;;;;21.14;47.68;102621.48;111614;1248;20519;-76
2022/01/24 04:33:36;;;;;;;;;27.33;24.00;;;;;21.13;47.57;102617.20;111616;1248;19298;-77
2022/01/24 04:36:02;;;;;;;;;23.00;21.33;;;;;21.12;47.70;102618.20;111613;1248;19456;-76
2022/01/24 04:38:29;;;;;;;;;28.33;24.67;;;;;21.13;47.79;102624.30;111633;1248;20236;-76
2022/01/24 04:40:59;;;;;;;;;30.67;24.67;;;;;21.12;47.82;102617.49;111609;1248;19304;-76
2022/01/24 04:43:35;;;;;;;;;28.00;24.33;;;;;21.12;47.76;102622.02;111640;1248;19548;-76
2022/01/24 04:46:10;;;;;;;;;25.33;21.67;;;;;21.13;47.56;102625.22;111662;1247;20991;-76
2022/01/24 04:51:33;;;;;;;;;24.67;22.67;;;;;21.12;47.72;102626.53;111660;1248;23333;-76
2022/01/24 04:54:38;;;;;;;;;21.50;20.50;;;;;21.12;47.85;102625.68;111649;1248;20350;-77
2022/01/24 04:57:04;;;;;;;;;25.00;24.00;;;;;21.11;47.97;102627.17;111971;1245;24086;-76
2022/01/24 04:59:30;;;;;;;;;22.33;21.33;;;;;21.11;47.73;102628.84;111981;1244;19511;-76
2022/01/24 05:01:56;;;;;;;;;28.33;26.33;;;;;21.10;47.75;102629.58;112066;1244;22846;-74
2022/01/24 05:04:23;;;;;;;;;24.50;23.50;;;;;21.10;47.62;102629.80;112053;1245;19128;-76
2022/01/24 05:06:49;;;;;;;;;26.00;24.00;;;;;21.09;47.71;102628.05;112091;1244;19670;-77
2022/01/24 05:09:17;;;;;;;;;26.00;21.00;;;;;21.09;47.61;102631.48;112118;1245;20214;-76
2022/01/24 05:11:52;;;;;;;;;26.00;23.50;;;;;21.09;47.47;102629.89;112084;1245;19354;-77
2022/01/24 05:25:16;;;;;;;;;21.67;19.67;;;;;21.10;47.51;102630.87;112103;1244;23264;-76
2022/01/24 05:27:43;;;;;;;;;24.00;21.50;;;;;21.10;47.61;102628.02;111938;1244;22174;-76
2022/01/24 05:30:08;;;;;;;;;22.33;20.67;;;;;21.09;47.52;102630.23;112075;1245;19488;-75
2022/01/24 05:32:35;;;;;;;;;31.00;21.00;;;;;21.09;47.62;102632.21;112057;1244;22971;-76
2022/01/24 05:35:01;;;;;;;;;25.00;22.67;;;;;21.10;47.35;102633.25;112041;1245;24050;-77
2022/01/24 05:37:27;;;;;;;;;26.67;24.33;;;;;21.11;47.48;102635.38;112047;1245;19642;-77
2022/01/24 05:39:54;;;;;;;;;24.33;23.00;;;;;21.10;47.40;102640.34;112051;1244;20397;-77
2022/01/24 05:42:21;;;;;;;;;24.67;22.33;;;;;21.10;47.64;102640.56;112100;1245;23508;-76
2022/01/24 05:44:48;;;;;;;;;24.67;21.00;;;;;21.10;47.51;102641.83;112045;1245;19657;-76
2022/01/24 05:47:14;;;;;;;;;28.00;25.00;;;;;21.08;47.63;102641.95;112023;1244;20178;-77
2022/01/24 05:49:40;;;;;;;;;23.67;22.67;;;;;21.09;47.28;102651.88;111826;1244;19277;-76
2022/01/24 05:52:09;;;;;;;;;20.33;19.00;;;;;21.10;47.54;102652.54;111972;1244;23033;-75
2022/01/24 05:54:35;;;;;;;;;26.67;23.67;;;;;21.14;47.52;102647.12;111983;1245;20220;-77
2022/01/24 05:57:01;;;;;;;;;24.00;20.00;;;;;21.21;47.72;102644.46;112149;1245;18977;-76
2022/01/24 05:59:27;;;;;;;;;23.67;22.33;;;;;21.24;47.76;102646.70;112037;1245;19447;-76
2022/01/24 06:01:53;;;;;;;;;24.67;23.00;;;;;21.24;47.61;102645.45;112062;1245;23006;-75
2022/01/24 06:04:19;;;;;;;;;29.00;22.00;;;;;21.23;47.96;102643.52;111983;1245;19198;-77
2022/01/24 06:06:45;;;;;;;;;27.67;22.33;;;;;21.23;48.30;102637.55;112019;1244;19576;-75
2022/01/24 06:09:12;;;;;;;;;23.50;22.00;;;;;21.24;48.23;102636.02;112033;1245;20040;-76
2022/01/24 06:11:38;;;;;;;;;21.50;19.00;;;;;21.22;48.68;102632.54;112058;1244;19205;-76
2022/01/24 06:14:05;;;;;;;;;26.33;23.00;;;;;21.22;48.78;102625.48;112008;1245;19892;-77
2022/01/24 06:16:31;;;;;;;;;26.00;24.50;;;;;21.22;48.95;102625.81;112063;1245;20261;-75
2022/01/24 06:18:57;;;;;;;;;27.00;24.00;;;;;21.22;48.95;102628.73;111996;1244;19239;-73
2022/01/24 06:21:23;;;;;;;;;24.00;20.00;;;;;21.22;48.82;102625.27;111944;1244;19403;-76
2022/01/24 06:23:48;;;;;;;;;28.00;24.00;;;;;21.21;48.81;102624.26;112010;1245;20180;-74
2022/01/24 06:26:15;;;;;;;;;23.50;21.00;;;;;21.20;49.02;102627.84;112028;1244;19434;-74
2022/01/24 06:28:41;;;;;;;;;25.33;21.00;;;;;21.19;49.05;102629.73;111985;1245;19424;-75
2022/01/24 06:31:07;;;;;;;;;27.00;24.00;;;;;21.20;48.76;102632.34;111996;1244;20328;-75
2022/01/24 06:33:33;;;;;;;;;26.00;21.00;;;;;21.21;48.75;102637.73;111974;1245;23179;-75
2022/01/24 06:35:59;;;;;;;;;35.00;29.00;;;;;21.21;48.66;102635.41;111960;1244;23296;-74
2022/01/24 06:38:25;;;;;;;;;25.00;22.00;;;;;21.20;48.86;102635.84;111867;1244;23324;-74
2022/01/24 06:40:51;;;;;;;;;23.00;23.00;;;;;21.20;48.84;102641.08;112007;1245;24040;-74
2022/01/24 06:43:17;;;;;;;;;23.67;22.67;;;;;21.20;48.52;102647.27;111959;1245;22141;-74
2022/01/24 06:45:43;;;;;;;;;24.00;22.33;;;;;21.20;48.62;102645.09;111997;1244;20031;-75
2022/01/24 06:48:10;;;;;;;;;27.33;20.33;;;;;21.20;48.53;102643.98;111986;1244;19184;-75
2022/01/24 06:50:36;;;;;;;;;22.67;21.33;;;;;21.20;48.57;102643.26;112015;1245;19500;-71
2022/01/24 06:53:02;;;;;;;;;26.00;24.00;;;;;21.19;48.57;102642.61;111965;1245;23897;-77
2022/01/24 06:55:27;;;;;;;;;27.00;24.50;;;;;21.19;48.48;102647.38;111857;1245;19180;-75
2022/01/24 06:57:53;;;;;;;;;23.00;22.00;;;;;21.21;48.58;102650.80;111859;1244;19233;-76
2022/01/24 07:00:25;;;;;;;;;28.00;24.00;;;;;21.20;48.63;102652.55;112050;1245;20008;-77
2022/01/24 07:02:51;;;;;;;;;28.33;24.33;;;;;21.20;48.75;102657.98;112061;1245;23566;-75
2022/01/24 07:05:17;;;;;;;;;31.00;27.00;;;;;21.19;48.71;102655.16;112041;1244;19298;-77
2022/01/24 07:07:43;;;;;;;;;27.00;24.50;;;;;21.23;48.68;102654.08;111975;1245;20033;-76
2022/01/24 07:10:09;;;;;;;;;31.33;25.00;;;;;21.28;48.78;102650.78;111993;1244;19183;-77
2022/01/24 07:12:35;;;;;;;;;26.33;21.67;;;;;21.32;49.52;102651.31;112056;1245;19361;-74
2022/01/24 07:15:08;;;;;;;;;26.00;24.33;;;;;21.34;49.76;102652.23;112046;1244;21770;-75
2022/01/24 07:17:56;;;;;;;;;24.00;23.00;;;;;21.37;50.13;102653.33;112042;1243;19403;-74
2022/01/24 07:20:21;;;;;;;;;32.00;25.50;;;;;21.41;50.74;102659.67;111976;1245;21019;-74
2022/01/24 07:22:47;;;;;;;;;30.67;26.00;;;;;21.42;51.78;102660.11;112014;1245;20237;-73
2022/01/24 07:25:13;;;;;;;;;27.67;25.00;;;;;21.44;51.75;102667.01;111867;1244;19335;-73
2022/01/24 07:27:40;;;;;;;;;28.00;25.00;;;;;21.48;52.90;102666.16;111802;1244;19439;-73
2022/01/24 07:30:06;;;;;;;;;32.33;29.67;;;;;21.53;53.64;102667.14;111774;1244;20239;-75
2022/01/24 07:32:32;;;;;;;;;26.00;25.00;;;;;21.51;54.81;102671.29;112061;1245;19140;-75
2022/01/24 07:35:01;;;;;;;;;27.00;25.00;;;;;21.48;54.85;102671.95;112018;1244;20839;-75
2022/01/24 07:37:27;;;;;;;;;29.00;24.67;;;;;21.49;55.99;102678.19;112049;1244;23675;-75
2022/01/24 07:39:53;;;;;;;;;34.50;28.00;;;;;21.49;55.65;102676.16;112041;1245;19202;-75
2022/01/24 07:42:28;;;;;;;;;28.50;25.50;;;;;21.49;55.71;102675.88;112012;1244;19529;-74
2022/01/24 07:44:54;;;;;;;;;29.00;25.00;;;;;21.50;55.23;102674.14;111926;1244;20155;-73
2022/01/24 07:47:21;;;;;;;;;30.00;28.50;;;;;21.52;54.91;102677.05;112047;1245;19068;-74
2022/01/24 07:49:47;;;;;;;;;32.33;24.67;;;;;21.52;54.75;102674.49;111995;1244;22215;-75
2022/01/24 07:52:12;;;;;;;;;29.00;28.00;;;;;21.54;54.70;102674.65;111989;1245;24230;-76
2022/01/24 07:54:39;;;;;;;;;31.00;29.00;;;;;21.55;54.48;102671.12;112023;1245;23878;-74
2022/01/24 07:57:05;;;;;;;;;28.67;25.67;;;;;21.56;53.73;102671.27;112014;1244;19614;-76
2022/01/24 07:59:31;;;;;;;;;32.00;28.00;;;;;21.56;53.46;102662.64;111994;1244;20013;-74
2022/01/24 08:01:57;;;;;;;;;32.67;29.67;;;;;21.57;53.93;102665.67;112017;1245;19256;-76
2022/01/24 08:04:23;;;;;;;;;32.33;29.00;;;;;21.55;53.19;102661.90;111893;1244;19505;-74
2022/01/24 08:06:51;;;;;;;;;28.00;25.67;;;;;21.54;53.51;102660.84;111946;1245;20501;-77
2022/01/24 08:09:18;;;;;;;;;32.00;29.33;;;;;21.53;53.13;102657.48;111978;1244;19167;-75
2022/01/24 08:11:44;;;;;;;;;33.50;30.00;;;;;21.50;53.01;102655.55;111890;1244;23170;-76
2022/01/24 08:14:10;;;;;;;;;36.33;33.00;;;;;21.51;52.86;102657.47;111873;1244;20356;-74
2022/01/24 08:16:37;;;;;;;;;40.00;31.67;;;;;21.48;52.50;102654.86;112010;1244;19302;-77
2022/01/24 08:19:03;;;;;;;;;33.33;30.33;;;;;21.47;52.30;102656.92;111883;1244;19463;-76
2022/01/24 08:21:29;;;;;;;;;39.50;33.00;;;;;21.45;52.32;102662.39;111982;1245;20356;-77
2022/01/24 08:23:56;;;;;;;;;33.33;31.67;;;;;21.44;52.32;102660.11;111976;1245;19147;-77
2022/01/24 08:26:23;;;;;;;;;30.33;29.00;;;;;21.45;51.94;102662.05;112005;1245;21838;-77
2022/01/24 08:28:49;;;;;;;;;39.50;34.50;;;;;21.47;51.54;102657.83;112015;1244;23598;-78
2022/01/24 08:31:15;;;;;;;;;36.33;33.00;;;;;21.50;51.69;102662.48;111984;1244;19448;-77
2022/01/24 08:33:41;;;;;;;;;32.33;29.33;;;;;21.49;51.58;102664.95;112029;1245;19899;-77
2022/01/24 08:36:08;;;;;;;;;47.50;37.00;;;;;21.51;51.56;102667.65;112033;1245;23573;-77
2022/01/24 08:38:35;;;;;;;;;45.00;40.00;;;;;21.53;51.54;102667.81;111901;1244;20439;-76
2022/01/24 08:41:07;;;;;;;;;43.67;39.33;;;;;21.55;51.57;102667.13;111879;1245;19494;-76
2022/01/24 08:43:50;;;;;;;;;48.50;37.50;;;;;21.58;51.55;102677.05;111896;1244;20577;-77
2022/01/24 08:46:16;;;;;;;;;51.33;38.33;;;;;21.53;51.63;102678.75;112038;1245;23861;-78
2022/01/24 08:48:42;;;;;;;;;42.33;38.00;;;;;21.47;51.48;102677.85;112076;1244;19592;-77
2022/01/24 08:51:09;;;;;;;;;43.00;38.33;;;;;21.47;51.32;102679.84;112065;1245;20447;-77
2022/01/24 08:53:35;;;;;;;;;40.00;32.00;;;;;21.49;51.39;102679.48;112027;1245;22966;-77
2022/01/24 08:56:02;;;;;;;;;47.33;38.00;;;;;21.52;51.34;102678.29;112104;1245;23789;-77
2022/01/24 08:58:28;;;;;;;;;40.67;37.00;;;;;21.54;51.03;102679.21;112060;1245;21756;-76
2022/01/24 09:00:54;;;;;;;;;43.00;37.00;;;;;21.58;50.98;102669.62;111996;1244;23560;-76
2022/01/24 09:03:20;;;;;;;;;46.67;37.00;;;;;21.56;51.00;102671.38;112077;1244;19450;-77
2022/01/24 09:05:49;;;;;;;;;42.33;33.67;;;;;21.51;51.42;102671.52;112076;1245;20276;-78
2022/01/24 09:08:16;;;;;;;;;38.00;34.00;;;;;21.52;50.83;102673.17;112045;1244;19398;-81
2022/01/24 09:10:43;;;;;;;;;40.00;37.00;;;;;21.55;51.27;102674.62;112011;1245;20061;-76
2022/01/24 09:13:10;;;;;;;;;41.33;37.00;;;;;21.54;51.24;102673.41;111892;1245;23033;-77
2022/01/24 09:15:36;;;;;;;;;44.00;38.33;;;;;21.52;51.24;102673.80;111959;1244;20576;-78
2022/01/24 09:18:03;;;;;;;;;37.50;33.50;;;;;21.51;51.55;102676.35;111987;1245;20107;-78
2022/01/24 09:20:30;;;;;;;;;45.00;40.00;;;;;21.54;51.53;102671.58;111994;1244;21655;-77
2022/01/24 09:22:56;;;;;;;;;46.00;38.67;;;;;21.56;50.95;102668.79;111966;1244;19297;-78
2022/01/24 09:25:22;;;;;;;;;44.00;38.00;;;;;21.59;50.61;102667.16;112035;1245;22105;-79
2022/01/24 09:27:48;;;;;;;;;45.50;36.50;;;;;21.62;50.76;102666.73;111999;1244;20230;-78
2022/01/24 09:30:14;;;;;;;;;40.33;36.67;;;;;21.61;50.72;102664.77;111929;1245;19267;-78
2022/01/24 09:32:41;;;;;;;;;51.33;44.33;;;;;21.64;50.75;102665.27;111939;1245;19623;-78
2022/01/24 09:35:08;;;;;;;;;55.67;45.00;;;;;21.63;50.53;102663.53;111964;1244;20208;-80
2022/01/24 09:37:34;;;;;;;;;86.33;64.00;;;;;21.58;50.97;102658.34;111874;1245;20578;-78
2022/01/24 09:40:01;;;;;;;;;75.50;57.00;;;;;21.57;50.87;102661.15;112016;1245;19363;-78
2022/01/24 09:42:27;;;;;;;;;87.67;65.33;;;;;21.59;50.62;102663.52;111943;1244;20237;-78
2022/01/24 09:44:54;;;;;;;;;83.50;60.50;;;;;21.59;50.41;102662.21;111828;1244;19711;-79
2022/01/24 09:47:20;;;;;;;;;92.00;64.00;;;;;21.59;50.55;102664.73;111940;1244;23492;-77
2022/01/24 09:49:46;;;;;;;;;88.00;64.00;;;;;21.59;50.30;102660.43;111924;1245;21699;-76
2022/01/24 09:52:13;;;;;;;;;88.33;65.00;;;;;21.57;50.34;102659.82;111935;1244;22933;-77
2022/01/24 09:54:40;;;;;;;;;79.33;60.00;;;;;21.58;50.46;102657.55;112039;1245;19622;-78
2022/01/24 09:57:06;;;;;;;;;80.33;60.33;;;;;21.58;49.89;102656.14;112073;1245;23187;-78
2022/01/24 09:59:33;;;;;;;;;80.00;58.00;;;;;21.55;49.55;102663.27;111933;1245;23012;-78
2022/01/24 10:02:00;;;;;;;;;77.00;57.00;;;;;21.53;50.33;102664.73;112012;1245;19434;-77
2022/01/24 10:04:26;;;;;;;;;72.33;56.67;;;;;21.52;50.22;102657.58;112081;1245;20313;-79
2022/01/24 10:06:53;;;;;;;;;71.33;56.00;;;;;21.48;50.44;102655.75;112065;1245;19153;-77
2022/01/24 10:09:19;;;;;;;;;76.67;56.33;;;;;21.47;50.61;102654.20;112059;1244;19484;-77
2022/01/24 10:11:45;;;;;;;;;72.67;52.67;;;;;21.46;50.53;102653.75;112110;1245;20211;-77
2022/01/24 10:16:56;;;;;;;;;69.33;51.33;;;;;21.43;50.48;102649.88;112057;1244;23173;-78
2022/01/24 10:19:22;;;;;;;;;68.00;52.67;;;;;21.42;50.52;102649.23;112085;1244;19956;-78
2022/01/24 10:21:50;;;;;;;;;65.00;51.00;;;;;21.40;50.30;102647.02;112126;1244;19031;-79
2022/01/24 10:24:16;;;;;;;;;63.33;48.33;;;;;21.38;50.41;102641.87;112006;1245;19707;-76
2022/01/24 10:26:42;;;;;;;;;63.00;50.00;;;;;21.38;50.39;102645.17;112030;1244;20044;-77
2022/01/24 10:29:08;;;;;;;;;59.00;46.67;;;;;21.37;50.44;102637.30;112029;1244;19078;-77
2022/01/24 10:31:35;;;;;;;;;57.67;45.00;;;;;21.36;50.24;102636.10;111987;1245;23097;-76
2022/01/24 10:34:06;;;;;;;;;64.00;48.00;;;;;21.37;50.29;102634.92;112068;1245;21839;-78
2022/01/24 10:36:32;;;;;;;;;58.67;45.00;;;;;21.36;50.21;102630.81;112129;1245;23040;-77
2022/01/24 10:39:05;;;;;;;;;60.33;46.67;;;;;21.35;50.08;102626.02;112054;1244;21955;-77
2022/01/24 10:41:50;;;;;;;;;55.00;44.00;;;;;21.34;50.17;102618.61;112085;1245;21652;-78
2022/01/24 10:44:16;;;;;;;;;54.00;42.50;;;;;21.36;49.88;102619.69;112060;1244;22930;-78
2022/01/24 10:46:44;;;;;;;;;55.00;44.33;;;;;21.39;50.17;102615.08;112077;1244;19448;-78
2022/01/24 10:49:13;;;;;;;;;51.67;42.67;;;;;21.40;49.85;102610.27;112198;1245;20220;-76
2022/01/24 10:51:40;;;;;;;;;54.50;44.00;;;;;21.41;50.09;102610.71;112124;1244;19254;-77
2022/01/24 10:54:06;;;;;;;;;55.00;43.67;;;;;21.43;49.94;102606.73;112012;1244;19819;-78
2022/01/24 10:56:32;;;;;;;;;56.00;44.67;;;;;21.46;49.66;102608.09;112104;1245;20373;-78
2022/01/24 10:58:59;;;;;;;;;47.00;41.33;;;;;21.48;50.07;102598.80;112086;1245;23837;-77
2022/01/24 11:01:26;;;;;;;;;46.00;38.00;;;;;21.50;50.18;102594.66;112061;1245;19605;-77
2022/01/24 11:03:53;;;;;;;;;61.33;48.67;;;;;21.53;50.50;102590.75;112093;1244;20262;-76
2022/01/24 11:06:21;;;;;;;;;103.50;84.00;;;;;21.53;49.71;102588.91;112049;1243;19657;-77
2022/01/24 11:08:47;;;;;;;;;95.33;73.00;;;;;21.53;49.55;102585.66;112032;1245;20881;-77
2022/01/24 11:11:13;;;;;;;;;208.00;170.50;;;;;21.54;49.20;102586.50;112030;1244;20092;-76
2022/01/24 11:13:43;;;;;;;;;231.25;196.00;;;;;21.57;49.53;102583.23;112017;1245;19021;-78
2022/01/24 11:16:09;;;;;;;;;200.00;170.67;;;;;21.61;49.55;102577.67;112087;1245;21008;-78
2022/01/24 11:18:35;;;;;;;;;182.00;152.00;;;;;21.64;49.30;102574.12;112091;1244;20358;-79
2022/01/24 11:21:11;;;;;;;;;206.75;170.00;;;;;21.65;49.65;102572.77;112059;1245;23911;-78
2022/01/24 11:23:40;;;;;;;;;178.25;151.25;;;;;21.63;50.06;102575.26;112068;1245;19699;-77
2022/01/24 11:26:07;;;;;;;;;187.25;149.00;;;;;21.63;50.28;102570.52;112130;1244;22369;-75
2022/01/24 11:28:34;;;;;;;;;160.00;130.50;;;;;21.65;50.30;102567.46;112109;1245;20421;-76
2022/01/24 11:31:00;;;;;;;;;157.00;131.00;;;;;21.65;49.97;102568.75;111482;1244;841012;-77
2022/01/24 11:33:26;;;;;;;;;140.00;119.50;;;;;21.60;49.75;102565.52;112094;1245;20302;-77
2022/01/24 11:35:54;;;;;;;;;133.33;113.00;;;;;21.55;49.44;102571.39;112074;1245;23213;-77
2022/01/24 11:38:21;;;;;;;;;134.25;116.75;;;;;21.50;49.81;102569.67;112094;1244;19543;-79
2022/01/24 11:40:47;;;;;;;;;123.75;105.50;;;;;21.46;50.03;102566.67;112124;1245;20233;-78
2022/01/24 11:43:13;;;;;;;;;126.50;107.25;;;;;21.43;49.89;102559.66;112109;1245;19010;-78
2022/01/24 11:45:45;;;;;;;;;117.00;98.25;;;;;21.41;50.05;102557.67;112114;1245;19579;-79
2022/01/24 11:48:11;;;;;;;;;114.75;94.25;;;;;21.40;49.91;102556.60;112100;1245;23397;-78
2022/01/24 11:50:38;;;;;;;;;107.50;90.50;;;;;21.40;49.87;102552.24;112028;1244;19772;-78
2022/01/24 11:53:07;;;;;;;;;106.33;90.67;;;;;21.39;49.96;102552.88;112097;1245;18989;-77
2022/01/24 11:55:34;;;;;;;;;111.00;91.00;;;;;21.38;49.87;102551.22;112104;1245;20014;-78
2022/01/24 11:58:03;;;;;;;;;102.67;83.00;;;;;21.38;49.89;102552.98;112101;1244;19296;-79
2022/01/24 12:00:33;;;;;;;;;102.33;77.67;;;;;21.37;49.96;102548.48;111967;1244;19571;-77
2022/01/24 12:02:59;;;;;;;;;98.67;73.00;;;;;21.40;49.87;102550.79;112017;1245;20170;-77
2022/01/24 12:05:25;;;;;;;;;98.00;76.00;;;;;21.41;49.93;102549.09;112048;1244;20584;-79
2022/01/24 12:07:52;;;;;;;;;94.67;71.00;;;;;21.42;49.83;102541.91;112071;1245;19394;-77
2022/01/24 12:10:18;;;;;;;;;96.00;70.00;;;;;21.40;49.66;102537.16;111992;1244;20342;-80